CA-0524 weather

Varys field
Owen Sound, Ontario, Canada

Public forecast

Using degrees Celsius for public forecast. Weather courtesy of forecast.io.

Closest aviation weather report (METAR) to Varys field

Closest report is Wiarton Airport, 17.4 nm (32.2 km) WNW. Retrieved 2019/10/16 08:37 UTC (0 seconds ago):

CYVV 160837Z 07012KT 8SM TSRA OVC036CB 09/08 A2956 RMK CB8 CB NE MVG E OCNL LTGCG NE PRESFR SLP015

Closest aviation forecast (TAF) to Varys field

Forecast is more than 12 hours old.

Closest forecast is Wiarton Airport, 17.4 nm (32.2 km) WNW. Retrieved 2019/10/15 20:00 UTC (12 hours ago):

TAF CYVV 151945Z 1520/1523 VRB03KT P6SM SCT060 BKN100 BKN180 BECMG 1521/1523 09008KT RMK NXT FCST WILL BE ISSUED AT 161045Z